createdAt,value
2019-02-27T00:01:17.666Z,7.77
2019-02-27T00:03:47.533Z,8.83
2019-02-27T00:06:17.415Z,9.20
2019-02-27T00:08:47.261Z,9.47
2019-02-27T00:11:17.022Z,9.00
2019-02-27T00:13:46.731Z,9.07
2019-02-27T00:16:16.459Z,10.77
2019-02-27T00:18:46.257Z,9.67
2019-02-27T00:21:15.969Z,10.17
2019-02-27T00:23:45.784Z,11.10
2019-02-27T00:26:15.503Z,9.27
2019-02-27T00:28:45.317Z,10.27
2019-02-27T00:31:15.117Z,9.37
2019-02-27T00:33:44.791Z,10.03
2019-02-27T00:36:14.683Z,9.87
2019-02-27T00:38:44.384Z,10.07
2019-02-27T00:41:14.126Z,12.40
2019-02-27T00:43:43.865Z,9.77
2019-02-27T00:46:14.001Z,9.90
2019-02-27T00:48:43.907Z,10.23
2019-02-27T00:51:13.682Z,8.90
2019-02-27T00:53:43.533Z,11.17
2019-02-27T00:56:13.240Z,8.20
2019-02-27T00:58:43.019Z,11.17
2019-02-27T01:01:13.328Z,9.10
2019-02-27T01:03:43.057Z,9.37
2019-02-27T01:06:14.837Z,8.93
2019-02-27T01:08:44.690Z,9.00
2019-02-27T01:11:18.141Z,9.17
2019-02-27T01:13:45.815Z,8.83
2019-02-27T01:16:17.345Z,8.13
2019-02-27T01:18:46.975Z,10.00
2019-02-27T01:21:18.935Z,9.60
2019-02-27T01:23:48.032Z,10.00
2019-02-27T01:26:17.744Z,9.33
2019-02-27T01:28:47.556Z,11.57
2019-02-27T01:31:17.283Z,10.83
2019-02-27T01:33:46.943Z,9.00
2019-02-27T01:36:16.653Z,10.13
2019-02-27T01:38:46.363Z,10.40
2019-02-27T01:41:16.119Z,9.77
2019-02-27T01:43:45.916Z,8.97
2019-02-27T01:46:15.633Z,8.60
2019-02-27T01:48:45.549Z,9.27
2019-02-27T01:51:15.224Z,7.87
2019-02-27T01:53:45.072Z,8.17
2019-02-27T01:56:14.802Z,9.43
2019-02-27T01:58:44.944Z,8.53
2019-02-27T02:01:14.826Z,7.63
2019-02-27T02:03:47.225Z,8.37
2019-02-27T02:06:15.869Z,9.47
2019-02-27T02:08:48.017Z,9.83
2019-02-27T02:11:17.232Z,8.00
2019-02-27T02:14:06.815Z,7.80
2019-02-27T02:17:07.483Z,8.37
2019-02-27T02:20:11.779Z,8.37
2019-02-27T02:23:14.273Z,9.00
2019-02-27T02:26:24.988Z,7.77
2019-02-27T02:29:40.955Z,7.60
2019-02-27T02:32:35.403Z,8.63
2019-02-27T02:35:29.089Z,7.67
2019-02-27T02:38:36.177Z,8.57
2019-02-27T02:41:46.278Z,8.03
2019-02-27T02:44:32.737Z,8.10
2019-02-27T02:47:37.043Z,8.97
2019-02-27T02:51:02.697Z,9.60
2019-02-27T02:54:14.017Z,11.77
2019-02-27T02:57:06.398Z,9.13
2019-02-27T03:00:01.173Z,8.53
2019-02-27T03:02:45.956Z,7.73
2019-02-27T03:05:59.690Z,8.67
2019-02-27T03:09:08.898Z,8.50
2019-02-27T03:12:31.091Z,10.17
2019-02-27T03:15:49.145Z,8.57
2019-02-27T03:19:07.260Z,7.57
2019-02-27T03:22:11.174Z,8.53
2019-02-27T03:25:09.360Z,8.70
2019-02-27T03:27:56.262Z,8.37
2019-02-27T03:31:16.053Z,8.03
2019-02-27T03:34:30.314Z,10.20
2019-02-27T03:37:31.058Z,8.40
2019-02-27T03:40:11.949Z,9.40
2019-02-27T03:43:11.495Z,9.30
2019-02-27T03:46:19.430Z,7.67
2019-02-27T03:49:14.178Z,8.50
2019-02-27T03:52:14.872Z,10.73
2019-02-27T03:55:31.863Z,9.50
2019-02-27T03:58:35.794Z,8.90
2019-02-27T04:01:30.500Z,9.73
2019-02-27T04:04:53.107Z,7.17
2019-02-27T04:07:56.828Z,9.60
2019-02-27T04:10:30.775Z,7.17
2019-02-27T04:12:58.037Z,9.07
2019-02-27T04:15:27.684Z,7.13
2019-02-27T04:17:55.619Z,7.20
2019-02-27T04:20:25.267Z,7.47
2019-02-27T04:22:55.127Z,7.73
2019-02-27T04:25:24.935Z,8.20
2019-02-27T04:27:55.489Z,7.73
2019-02-27T04:30:26.227Z,7.90
2019-02-27T04:32:55.940Z,7.87
2019-02-27T04:35:25.647Z,7.33
2019-02-27T04:37:55.557Z,7.40
2019-02-27T04:40:25.232Z,8.23
2019-02-27T04:42:56.973Z,7.90
2019-02-27T04:45:26.350Z,7.13
2019-02-27T04:47:56.095Z,7.73
2019-02-27T04:50:25.776Z,8.23
2019-02-27T04:52:59.404Z,8.70
2019-02-27T04:55:29.141Z,8.43
2019-02-27T04:57:59.387Z,9.23
2019-02-27T05:00:31.825Z,7.57
2019-02-27T05:03:01.537Z,7.97
2019-02-27T05:05:39.061Z,9.07
2019-02-27T05:08:10.892Z,11.20
2019-02-27T05:10:41.253Z,9.67
2019-02-27T05:13:11.013Z,13.20
2019-02-27T05:15:40.709Z,17.83
2019-02-27T05:18:15.787Z,24.03
2019-02-27T05:20:47.481Z,20.10
2019-02-27T05:23:23.548Z,23.40
2019-02-27T05:26:03.193Z,12.77
2019-02-27T05:31:29.159Z,13.97
2019-02-27T05:33:58.879Z,17.27
2019-02-27T05:36:28.978Z,16.90
2019-02-27T05:39:02.467Z,16.40
2019-02-27T05:41:33.282Z,21.07
2019-02-27T05:44:03.559Z,15.10
2019-02-27T05:46:35.661Z,17.63
2019-02-27T05:49:04.638Z,17.97
2019-02-27T05:51:34.392Z,20.77
2019-02-27T05:54:04.132Z,13.23
2019-02-27T05:56:33.911Z,14.70
2019-02-27T05:59:03.795Z,22.23
2019-02-27T06:01:37.740Z,15.13
2019-02-27T06:04:05.230Z,13.70
2019-02-27T06:06:34.932Z,15.77
2019-02-27T06:09:09.890Z,19.30
2019-02-27T06:11:36.956Z,17.60
2019-02-27T06:14:21.141Z,17.10
2019-02-27T06:16:50.155Z,17.37
2019-02-27T06:19:19.841Z,12.53
2019-02-27T06:22:08.636Z,16.17
2019-02-27T06:24:38.399Z,12.00
2019-02-27T06:27:08.086Z,11.30
2019-02-27T06:29:37.754Z,17.20
2019-02-27T06:32:11.839Z,12.93
2019-02-27T06:34:38.787Z,13.67
2019-02-27T06:37:08.602Z,9.70
2019-02-27T06:39:38.276Z,12.57
2019-02-27T06:42:07.961Z,9.43
2019-02-27T06:44:39.241Z,8.80
2019-02-27T06:47:09.083Z,10.17
2019-02-27T06:49:38.775Z,8.97
2019-02-27T06:52:09.271Z,7.97
2019-02-27T06:54:39.631Z,8.67
2019-02-27T06:57:09.591Z,10.60
2019-02-27T06:59:39.308Z,9.07
2019-02-27T07:02:08.963Z,9.70
2019-02-27T07:04:39.505Z,7.17
2019-02-27T07:07:10.138Z,8.10
2019-02-27T07:09:39.844Z,7.47
2019-02-27T07:12:09.629Z,8.90
2019-02-27T07:14:39.908Z,8.67
2019-02-27T07:17:09.783Z,7.27
2019-02-27T07:19:39.460Z,7.17
2019-02-27T07:22:12.350Z,6.90
2019-02-27T07:24:40.641Z,7.60
2019-02-27T07:27:11.241Z,8.37
2019-02-27T07:29:42.799Z,7.90
2019-02-27T07:32:12.242Z,7.47
2019-02-27T07:34:41.895Z,6.87
2019-02-27T07:37:12.953Z,8.43
2019-02-27T07:39:43.064Z,6.43
2019-02-27T07:42:13.246Z,6.27
2019-02-27T07:44:42.993Z,6.67
2019-02-27T07:47:12.859Z,7.13
2019-02-27T07:49:42.617Z,6.27
2019-02-27T07:52:12.513Z,6.10
2019-02-27T07:54:42.460Z,5.93
2019-02-27T07:57:12.503Z,9.50
2019-02-27T07:59:42.230Z,6.50
2019-02-27T08:02:11.993Z,6.00
2019-02-27T08:04:41.886Z,6.80
2019-02-27T08:07:12.411Z,8.47
2019-02-27T08:09:42.957Z,7.77
2019-02-27T08:12:12.872Z,5.63
2019-02-27T08:14:42.615Z,8.33
2019-02-27T08:17:17.625Z,6.40
2019-02-27T08:19:45.392Z,6.50
2019-02-27T08:22:15.383Z,8.20
2019-02-27T08:24:45.338Z,6.20
2019-02-27T08:27:15.045Z,6.53
2019-02-27T08:29:44.867Z,6.33
2019-02-27T08:32:14.739Z,6.80
2019-02-27T08:34:47.332Z,7.13
2019-02-27T08:37:17.260Z,7.27
2019-02-27T08:39:47.041Z,6.27
2019-02-27T08:42:16.995Z,8.60
2019-02-27T08:44:46.816Z,5.70
2019-02-27T08:47:16.618Z,5.07
2019-02-27T08:49:46.375Z,7.43
2019-02-27T08:52:16.407Z,7.53
2019-02-27T08:54:46.119Z,6.57
2019-02-27T08:57:16.069Z,6.27
2019-02-27T08:59:45.824Z,5.47
2019-02-27T09:02:15.604Z,7.83
2019-02-27T09:04:46.122Z,5.67
2019-02-27T09:07:16.143Z,5.63
2019-02-27T09:09:45.927Z,5.33
2019-02-27T09:12:15.675Z,5.97
2019-02-27T09:14:45.559Z,6.57
2019-02-27T09:17:15.476Z,6.27
2019-02-27T09:19:46.240Z,5.57
2019-02-27T09:22:16.391Z,6.07
2019-02-27T09:24:46.250Z,5.33
2019-02-27T09:27:16.215Z,6.33
2019-02-27T09:29:45.963Z,5.97
2019-02-27T09:32:15.787Z,5.30
2019-02-27T09:34:45.651Z,5.07
2019-02-27T09:37:16.907Z,5.50
2019-02-27T09:39:46.973Z,5.53
2019-02-27T09:42:19.151Z,5.33
2019-02-27T09:44:48.331Z,6.40
2019-02-27T09:47:18.143Z,5.00
2019-02-27T09:49:47.938Z,5.20
2019-02-27T09:52:17.759Z,5.67
2019-02-27T09:54:47.674Z,5.53
2019-02-27T09:57:17.618Z,5.80
2019-02-27T09:59:47.543Z,4.57
2019-02-27T10:02:17.411Z,6.03
2019-02-27T10:04:47.171Z,5.73
2019-02-27T10:07:17.096Z,6.03
2019-02-27T10:09:47.747Z,5.37
2019-02-27T10:12:17.481Z,4.47
2019-02-27T10:14:47.960Z,5.33
2019-02-27T10:17:18.834Z,6.33
2019-02-27T10:19:48.523Z,5.80
2019-02-27T10:22:20.193Z,5.00
2019-02-27T10:24:49.803Z,5.53
2019-02-27T10:27:19.869Z,5.03
2019-02-27T10:29:49.615Z,6.20
2019-02-27T10:32:19.319Z,6.27
2019-02-27T10:34:51.007Z,5.73
2019-02-27T10:37:20.554Z,6.53
2019-02-27T10:39:50.397Z,5.70
2019-02-27T10:42:20.172Z,5.83
2019-02-27T10:44:49.973Z,6.93
2019-02-27T10:47:19.780Z,5.77
2019-02-27T10:49:49.679Z,5.40
2019-02-27T10:52:23.917Z,6.17
2019-02-27T10:54:50.757Z,5.40
2019-02-27T10:57:20.602Z,5.17
2019-02-27T10:59:50.265Z,5.00
2019-02-27T11:02:20.111Z,5.57
2019-02-27T11:04:50.151Z,4.90
2019-02-27T11:07:20.008Z,7.10
2019-02-27T11:09:49.677Z,6.20
2019-02-27T11:12:19.440Z,5.60
2019-02-27T11:14:49.252Z,5.93
2019-02-27T11:17:19.059Z,5.83
2019-02-27T11:19:48.808Z,4.97
2019-02-27T11:22:18.564Z,5.50
2019-02-27T11:24:49.520Z,4.97
2019-02-27T11:27:20.108Z,5.90
2019-02-27T11:29:49.904Z,5.80
2019-02-27T11:32:23.014Z,5.50
2019-02-27T11:34:51.099Z,5.00
2019-02-27T11:37:20.908Z,5.13
2019-02-27T11:39:50.657Z,5.50
2019-02-27T11:42:20.372Z,5.20
2019-02-27T11:44:50.322Z,5.10
2019-02-27T11:47:20.158Z,5.17
2019-02-27T11:49:49.851Z,5.10
2019-02-27T11:52:19.708Z,6.10
2019-02-27T11:54:49.523Z,6.33
2019-02-27T11:57:19.407Z,4.97
2019-02-27T11:59:49.182Z,6.17
2019-02-27T12:02:19.055Z,5.43
2019-02-27T12:04:53.450Z,4.97
2019-02-27T12:07:20.185Z,5.47
2019-02-27T12:09:49.995Z,5.43
2019-02-27T12:12:22.525Z,5.13
2019-02-27T12:14:51.166Z,4.70
2019-02-27T12:17:23.296Z,5.03
2019-02-27T12:19:52.638Z,4.43
2019-02-27T12:22:22.327Z,4.80
2019-02-27T12:24:52.865Z,4.30
2019-02-27T12:27:45.040Z,4.73
2019-02-27T12:29:55.539Z,4.93
2019-02-27T12:32:25.434Z,4.93
2019-02-27T12:34:55.224Z,4.37
2019-02-27T12:37:28.450Z,5.90
2019-02-27T12:39:56.315Z,4.60
2019-02-27T12:42:26.090Z,5.40
2019-02-27T12:44:56.011Z,4.50
2019-02-27T12:47:25.792Z,5.13
2019-02-27T12:49:55.648Z,4.30
2019-02-27T12:52:25.447Z,4.90
2019-02-27T12:54:55.148Z,4.67
2019-02-27T12:57:25.409Z,4.77
2019-02-27T12:59:55.520Z,4.63
2019-02-27T13:02:35.282Z,4.40
2019-02-27T13:04:57.928Z,4.60
2019-02-27T13:07:28.152Z,4.93
2019-02-27T13:09:58.636Z,4.40
2019-02-27T13:12:29.536Z,4.10
2019-02-27T13:14:59.642Z,3.97
2019-02-27T13:17:29.783Z,4.03
2019-02-27T13:19:59.805Z,4.50
2019-02-27T13:22:30.165Z,4.33
2019-02-27T13:24:59.998Z,4.40
2019-02-27T13:27:29.811Z,4.77
2019-02-27T13:30:08.347Z,4.57
2019-02-27T13:32:31.004Z,4.30
2019-02-27T13:35:01.172Z,4.00
2019-02-27T13:37:31.122Z,4.73
2019-02-27T13:40:01.366Z,4.97
2019-02-27T13:42:31.213Z,5.17
2019-02-27T13:45:01.182Z,5.00
2019-02-27T13:47:31.168Z,4.30
2019-02-27T13:50:01.463Z,4.17
2019-02-27T13:52:31.393Z,4.40
2019-02-27T13:55:01.095Z,4.20
2019-02-27T13:57:31.059Z,4.23
2019-02-27T14:00:00.937Z,4.50
2019-02-27T14:02:30.875Z,4.57
2019-02-27T14:05:00.801Z,5.47
2019-02-27T14:07:30.838Z,4.27
2019-02-27T14:10:00.511Z,4.30
2019-02-27T14:12:33.178Z,4.70
2019-02-27T14:15:01.621Z,4.10
2019-02-27T14:17:31.359Z,4.27
2019-02-27T14:20:01.071Z,4.13
2019-02-27T14:22:30.773Z,4.20
2019-02-27T14:25:00.493Z,3.60
2019-02-27T14:27:30.364Z,3.80
2019-02-27T14:30:03.455Z,4.03
2019-02-27T14:32:31.482Z,3.47
2019-02-27T14:35:01.688Z,4.20
2019-02-27T14:37:31.610Z,4.07
2019-02-27T14:40:04.482Z,4.43
2019-02-27T14:42:32.983Z,4.83
2019-02-27T14:45:05.610Z,3.97
2019-02-27T14:47:36.008Z,4.13
2019-02-27T14:50:06.380Z,4.77
2019-02-27T14:52:36.064Z,4.23
2019-02-27T14:55:05.827Z,3.60
2019-02-27T14:57:35.611Z,3.43
2019-02-27T15:00:06.671Z,4.50
2019-02-27T15:02:55.869Z,3.67
2019-02-27T15:05:26.299Z,3.53
2019-02-27T15:07:56.069Z,4.47
2019-02-27T15:10:26.230Z,3.83
2019-02-27T15:12:55.925Z,3.73
2019-02-27T15:15:27.409Z,4.10
2019-02-27T15:17:57.152Z,3.00
2019-02-27T15:20:27.290Z,3.73
2019-02-27T15:22:56.995Z,4.47
2019-02-27T15:25:27.600Z,3.87
2019-02-27T15:27:59.625Z,3.87
2019-02-27T15:30:47.992Z,3.90
2019-02-27T15:33:17.882Z,4.07
2019-02-27T15:35:47.651Z,3.77
2019-02-27T15:38:17.543Z,3.67
2019-02-27T15:40:47.300Z,3.60
2019-02-27T15:43:17.937Z,3.27
2019-02-27T15:45:48.953Z,3.77
2019-02-27T15:48:18.970Z,3.50
2019-02-27T15:50:48.810Z,3.53
2019-02-27T15:53:18.509Z,3.90
2019-02-27T15:55:48.213Z,3.50
2019-02-27T15:58:18.146Z,3.80
2019-02-27T16:00:52.352Z,3.53
2019-02-27T16:03:19.467Z,3.60
2019-02-27T16:05:49.190Z,6.90
2019-02-27T16:08:20.237Z,11.60
2019-02-27T16:10:54.849Z,7.07
2019-02-27T16:13:22.263Z,15.53
2019-02-27T16:15:52.136Z,10.60
2019-02-27T16:18:21.952Z,10.27
2019-02-27T16:20:51.661Z,6.97
2019-02-27T16:23:21.481Z,7.77
2019-02-27T16:25:54.129Z,9.33
2019-02-27T16:28:23.027Z,9.37
2019-02-27T16:30:52.736Z,3.90
2019-02-27T16:33:24.016Z,5.70
2019-02-27T16:35:55.314Z,5.23
2019-02-27T16:38:25.097Z,6.40
2019-02-27T16:40:54.809Z,5.97
2019-02-27T16:43:24.599Z,7.70
2019-02-27T16:45:54.469Z,5.13
2019-02-27T16:48:24.305Z,6.03
2019-02-27T16:50:54.131Z,4.30
2019-02-27T16:53:23.921Z,4.43
2019-02-27T16:55:53.631Z,8.57
2019-02-27T16:58:23.478Z,5.03
2019-02-27T17:00:55.261Z,4.73
2019-02-27T17:03:24.576Z,6.00
2019-02-27T17:05:54.331Z,9.50
2019-02-27T17:08:24.148Z,7.63
2019-02-27T17:10:53.803Z,6.03
2019-02-27T17:13:23.556Z,6.10
2019-02-27T17:15:53.462Z,10.20
2019-02-27T17:18:28.041Z,5.07
2019-02-27T17:20:54.664Z,7.57
2019-02-27T17:23:24.338Z,9.07
2019-02-27T17:25:54.075Z,6.63
2019-02-27T17:28:23.885Z,6.60
2019-02-27T17:30:53.691Z,3.97
2019-02-27T17:33:24.431Z,4.50
2019-02-27T17:35:58.406Z,7.83
2019-02-27T17:38:25.527Z,5.83
2019-02-27T17:40:55.235Z,4.53
2019-02-27T17:43:28.588Z,11.60
2019-02-27T17:45:56.232Z,16.60
2019-02-27T17:48:26.030Z,10.27
2019-02-27T17:50:55.797Z,8.47
2019-02-27T17:53:25.463Z,22.43
2019-02-27T17:55:55.274Z,18.03
2019-02-27T17:58:25.055Z,32.10
2019-02-27T18:00:57.660Z,21.80
2019-02-27T18:03:27.351Z,13.53
2019-02-27T18:05:59.445Z,14.47
2019-02-27T18:08:28.554Z,9.17
2019-02-27T18:10:58.355Z,11.30
2019-02-27T18:13:28.068Z,7.73
2019-02-27T18:15:57.999Z,10.57
2019-02-27T18:18:27.904Z,7.53
2019-02-27T18:20:59.582Z,9.87
2019-02-27T18:23:29.048Z,15.53
2019-02-27T18:25:58.834Z,12.83
2019-02-27T18:28:32.701Z,11.30
2019-02-27T18:30:59.941Z,8.43
2019-02-27T18:33:29.752Z,10.07
2019-02-27T18:36:04.519Z,8.57
2019-02-27T18:38:30.904Z,10.80
2019-02-27T18:41:00.647Z,8.33
2019-02-27T18:43:30.882Z,11.93
2019-02-27T18:46:00.632Z,8.63
2019-02-27T18:48:30.416Z,7.47
2019-02-27T18:51:00.078Z,8.83
2019-02-27T18:53:29.882Z,8.97
2019-02-27T18:56:01.991Z,8.20
2019-02-27T18:58:31.300Z,6.53
2019-02-27T19:01:01.017Z,10.77
2019-02-27T19:03:30.760Z,7.77
2019-02-27T19:06:00.510Z,8.13
2019-02-27T19:08:30.229Z,8.03
2019-02-27T19:10:59.992Z,8.40
2019-02-27T19:13:31.794Z,8.80
2019-02-27T19:16:01.152Z,9.60
2019-02-27T19:18:31.028Z,7.37
2019-02-27T19:21:00.820Z,7.97
2019-02-27T19:23:30.499Z,9.10
2019-02-27T19:26:00.259Z,16.57
2019-02-27T19:28:29.983Z,10.93
2019-02-27T19:30:59.720Z,14.40
2019-02-27T19:33:29.479Z,18.37
2019-02-27T19:35:59.311Z,17.10
2019-02-27T19:38:29.040Z,13.87
2019-02-27T19:41:01.229Z,10.27
2019-02-27T19:43:30.329Z,10.50
2019-02-27T19:46:00.051Z,20.87
2019-02-27T19:48:29.703Z,13.43
2019-02-27T19:50:59.360Z,8.40
2019-02-27T19:53:29.034Z,13.47
2019-02-27T19:56:01.603Z,10.17
2019-02-27T19:58:30.079Z,14.07
2019-02-27T20:00:59.798Z,17.27
2019-02-27T20:03:34.689Z,13.57
2019-02-27T20:06:01.187Z,13.57
2019-02-27T20:08:30.928Z,20.23
2019-02-27T20:11:02.364Z,10.03
2019-02-27T20:13:33.083Z,12.03
2019-02-27T20:16:02.872Z,12.20
2019-02-27T20:18:32.723Z,8.97
2019-02-27T20:21:02.552Z,9.27
2019-02-27T20:23:32.350Z,7.80
2019-02-27T20:26:02.154Z,11.17
2019-02-27T20:28:33.147Z,8.47
2019-02-27T20:31:03.633Z,10.27
2019-02-27T20:33:34.195Z,9.20
2019-02-27T20:36:04.940Z,11.87
2019-02-27T20:38:34.971Z,13.20
2019-02-27T20:41:06.097Z,12.80
2019-02-27T20:43:35.992Z,15.80
2019-02-27T20:46:05.951Z,18.43
2019-02-27T20:48:39.502Z,15.10
2019-02-27T20:51:07.453Z,12.80
2019-02-27T20:53:37.251Z,15.77
2019-02-27T20:56:06.961Z,20.57
2019-02-27T20:58:36.770Z,14.50
2019-02-27T21:01:09.899Z,14.37
2019-02-27T21:03:37.931Z,13.87
2019-02-27T21:06:07.603Z,15.53
2019-02-27T21:08:37.346Z,11.73
2019-02-27T21:11:09.313Z,11.27
2019-02-27T21:13:39.142Z,10.87
2019-02-27T21:16:10.154Z,10.33
2019-02-27T21:18:40.081Z,12.93
2019-02-27T21:21:10.989Z,9.87
2019-02-27T21:23:40.832Z,15.23
2019-02-27T21:26:10.577Z,11.03
2019-02-27T21:28:40.369Z,9.90
2019-02-27T21:31:10.994Z,7.73
2019-02-27T21:33:42.482Z,8.77
2019-02-27T21:36:14.624Z,9.47
2019-02-27T21:38:47.425Z,10.60
2019-02-27T21:41:15.833Z,13.30
2019-02-27T21:43:45.576Z,11.27
2019-02-27T21:46:15.285Z,9.80
2019-02-27T21:48:45.096Z,12.17
2019-02-27T21:51:14.913Z,7.43
2019-02-27T21:53:45.280Z,8.60
2019-02-27T21:56:15.253Z,10.27
2019-02-27T21:58:46.327Z,8.13
2019-02-27T22:01:16.072Z,8.83
2019-02-27T22:03:45.815Z,8.80
2019-02-27T22:06:15.528Z,9.33
2019-02-27T22:08:45.367Z,9.37
2019-02-27T22:11:15.175Z,8.97
2019-02-27T22:13:45.362Z,8.77
2019-02-27T22:16:15.700Z,7.67
2019-02-27T22:18:47.054Z,6.83
2019-02-27T22:21:16.853Z,7.10
2019-02-27T22:23:46.563Z,7.63
2019-02-27T22:26:16.195Z,9.20
2019-02-27T22:28:45.991Z,9.13
2019-02-27T22:31:15.717Z,7.40
2019-02-27T22:33:45.792Z,7.77
2019-02-27T22:36:15.545Z,7.50
2019-02-27T22:38:45.592Z,9.00
2019-02-27T22:41:15.365Z,8.03
2019-02-27T22:43:45.036Z,6.47
2019-02-27T22:46:16.490Z,7.37
2019-02-27T22:48:46.104Z,6.83
2019-02-27T22:51:15.802Z,7.17
2019-02-27T22:53:45.662Z,7.67
2019-02-27T22:56:16.895Z,8.20
2019-02-27T22:58:49.078Z,6.60
2019-02-27T23:01:35.223Z,6.67
2019-02-27T23:04:09.383Z,6.50
2019-02-27T23:06:39.490Z,8.57
2019-02-27T23:09:11.970Z,6.60
2019-02-27T23:11:41.709Z,6.50
2019-02-27T23:14:11.373Z,8.27
2019-02-27T23:16:41.166Z,6.20
2019-02-27T23:19:12.161Z,6.97
2019-02-27T23:21:42.252Z,6.97
2019-02-27T23:24:11.972Z,7.40
2019-02-27T23:26:41.813Z,6.93
2019-02-27T23:29:12.517Z,8.50
2019-02-27T23:31:42.323Z,7.10
2019-02-27T23:34:12.042Z,7.07
2019-02-27T23:36:41.925Z,6.50
2019-02-27T23:39:11.728Z,7.53
2019-02-27T23:41:41.436Z,6.27
2019-02-27T23:44:12.173Z,7.00
2019-02-27T23:46:48.586Z,7.23
2019-02-27T23:49:13.483Z,7.60
2019-02-27T23:51:43.288Z,6.33
2019-02-27T23:54:12.970Z,6.37
2019-02-27T23:56:42.713Z,5.80
2019-02-27T23:59:12.343Z,6.60
